createdAt,value
2018-08-18T00:00:07.077Z,1.17
2018-08-18T00:02:41.179Z,1.30
2018-08-18T00:05:16.176Z,1.70
2018-08-18T00:07:51.148Z,1.20
2018-08-18T00:10:25.268Z,1.37
2018-08-18T00:13:00.781Z,1.53
2018-08-18T00:15:36.438Z,1.83
2018-08-18T00:18:10.431Z,1.90
2018-08-18T00:20:45.070Z,1.70
2018-08-18T00:23:18.977Z,1.90
2018-08-18T00:25:53.526Z,1.60
2018-08-18T00:28:28.677Z,1.73
2018-08-18T00:31:04.376Z,1.50
2018-08-18T00:33:39.072Z,1.40
2018-08-18T00:36:14.172Z,1.57
2018-08-18T00:38:49.291Z,1.27
2018-08-18T00:41:23.688Z,1.43
2018-08-18T00:43:58.524Z,1.57
2018-08-18T00:46:33.522Z,1.70
2018-08-18T00:49:07.540Z,1.67
2018-08-18T00:51:41.893Z,1.50
2018-08-18T00:54:15.775Z,1.20
2018-08-18T00:56:49.651Z,1.53
2018-08-18T00:59:29.191Z,1.50
2018-08-18T01:02:03.574Z,1.20
2018-08-18T01:04:42.755Z,1.30
2018-08-18T01:07:16.620Z,1.70
2018-08-18T01:09:50.824Z,1.80
2018-08-18T01:12:31.249Z,1.53
2018-08-18T01:15:07.664Z,1.50
2018-08-18T01:17:42.065Z,1.40
2018-08-18T01:20:16.835Z,1.27
2018-08-18T01:22:56.184Z,1.20
2018-08-18T01:25:31.954Z,1.73
2018-08-18T01:28:06.521Z,1.53
2018-08-18T01:30:41.349Z,1.67
2018-08-18T01:33:15.197Z,1.50
2018-08-18T01:35:49.746Z,2.23
2018-08-18T01:38:23.566Z,1.43
2018-08-18T01:41:02.985Z,1.53
2018-08-18T01:43:37.466Z,1.50
2018-08-18T01:46:11.476Z,1.53
2018-08-18T01:48:46.114Z,1.20
2018-08-18T01:51:22.500Z,1.60
2018-08-18T01:53:57.035Z,1.70
2018-08-18T01:56:31.058Z,1.30
2018-08-18T01:59:06.703Z,1.23
2018-08-18T02:01:41.928Z,1.93
2018-08-18T02:04:18.749Z,1.90
2018-08-18T02:06:54.613Z,1.40
2018-08-18T02:09:29.262Z,1.13
2018-08-18T02:12:03.367Z,1.57
2018-08-18T02:14:38.685Z,1.57
2018-08-18T02:17:29.979Z,1.47
2018-08-18T02:20:05.287Z,1.40
2018-08-18T02:22:39.142Z,1.47
2018-08-18T02:25:13.315Z,1.30
2018-08-18T02:27:47.370Z,1.50
2018-08-18T02:30:22.145Z,1.47
2018-08-18T02:32:55.998Z,1.60
2018-08-18T02:35:29.885Z,1.17
2018-08-18T02:38:03.892Z,1.60
2018-08-18T02:40:37.951Z,1.43
2018-08-18T02:43:21.890Z,1.40
2018-08-18T02:46:07.233Z,1.40
2018-08-18T02:48:41.565Z,1.20
2018-08-18T02:51:15.747Z,1.53
2018-08-18T02:53:49.815Z,1.00
2018-08-18T02:56:28.007Z,1.27
2018-08-18T02:59:04.154Z,1.43
2018-08-18T03:01:42.655Z,1.30
2018-08-18T03:04:18.204Z,1.43
2018-08-18T03:06:52.822Z,1.33
2018-08-18T03:09:27.697Z,1.13
2018-08-18T03:12:01.751Z,1.10
2018-08-18T03:14:35.850Z,0.80
2018-08-18T03:17:11.613Z,1.37
2018-08-18T03:19:46.863Z,1.00
2018-08-18T03:22:21.607Z,1.13
2018-08-18T03:24:56.164Z,1.10
2018-08-18T03:27:31.116Z,1.70
2018-08-18T03:30:05.643Z,1.07
2018-08-18T03:32:39.606Z,1.10
2018-08-18T03:35:14.387Z,1.00
2018-08-18T03:37:49.170Z,1.20
2018-08-18T03:40:25.379Z,1.40
2018-08-18T03:42:59.940Z,1.10
2018-08-18T03:45:34.890Z,1.20
2018-08-18T03:48:08.876Z,1.00
2018-08-18T03:50:47.342Z,0.90
2018-08-18T03:53:21.397Z,0.90
2018-08-18T03:55:55.273Z,1.37
2018-08-18T03:58:33.396Z,1.40
2018-08-18T04:01:07.896Z,1.10
2018-08-18T04:03:43.230Z,1.07
2018-08-18T04:06:17.093Z,1.00
2018-08-18T04:08:50.938Z,1.17
2018-08-18T04:11:24.912Z,1.30
2018-08-18T04:13:58.614Z,0.97
2018-08-18T04:16:32.849Z,1.20
2018-08-18T04:19:06.602Z,1.17
2018-08-18T04:21:40.506Z,1.33
2018-08-18T04:24:15.474Z,1.30
2018-08-18T04:26:52.038Z,1.37
2018-08-18T04:29:26.875Z,0.90
2018-08-18T04:32:01.611Z,1.20
2018-08-18T04:34:38.079Z,0.97
2018-08-18T04:37:13.216Z,1.50
2018-08-18T04:39:47.047Z,1.20
2018-08-18T04:42:21.088Z,1.87
2018-08-18T04:44:54.890Z,1.57
2018-08-18T04:47:29.355Z,1.33
2018-08-18T04:50:03.171Z,1.50
2018-08-18T04:52:36.987Z,0.97
2018-08-18T04:55:11.493Z,1.20
2018-08-18T04:57:46.452Z,1.00
2018-08-18T05:00:21.408Z,1.20
2018-08-18T05:02:58.585Z,1.27
2018-08-18T05:05:32.848Z,1.07
2018-08-18T05:08:07.595Z,1.47
2018-08-18T05:10:42.183Z,1.50
2018-08-18T05:13:17.028Z,1.30
2018-08-18T05:15:52.571Z,1.23
2018-08-18T05:18:28.228Z,1.27
2018-08-18T05:21:04.171Z,1.43
2018-08-18T05:23:38.089Z,1.33
2018-08-18T05:26:13.067Z,1.40
2018-08-18T05:28:47.152Z,1.20
2018-08-18T05:31:21.917Z,1.60
2018-08-18T05:33:56.003Z,1.70
2018-08-18T05:36:30.182Z,1.47
2018-08-18T05:39:05.592Z,1.23
2018-08-18T05:41:40.244Z,1.60
2018-08-18T05:44:14.145Z,1.37
2018-08-18T05:46:47.975Z,1.30
2018-08-18T05:49:21.967Z,1.60
2018-08-18T05:51:55.850Z,1.20
2018-08-18T05:54:29.911Z,1.10
2018-08-18T05:57:03.730Z,1.10
2018-08-18T05:59:37.765Z,1.40
2018-08-18T06:02:11.725Z,1.20
2018-08-18T06:04:45.633Z,1.20
2018-08-18T06:07:19.568Z,1.27
2018-08-18T06:09:53.369Z,1.50
2018-08-18T06:12:27.217Z,1.30
2018-08-18T06:15:03.409Z,1.10
2018-08-18T06:17:37.122Z,1.30
2018-08-18T06:20:11.117Z,1.37
2018-08-18T06:22:45.104Z,1.53
2018-08-18T06:25:19.130Z,1.00
2018-08-18T06:27:53.021Z,1.13
2018-08-18T06:30:26.789Z,1.10
2018-08-18T06:33:00.587Z,1.00
2018-08-18T06:35:35.384Z,1.20
2018-08-18T06:38:09.397Z,1.30
2018-08-18T06:40:48.737Z,1.20
2018-08-18T06:43:23.378Z,1.17
2018-08-18T06:45:59.183Z,1.10
2018-08-18T06:48:34.687Z,1.27
2018-08-18T06:51:09.268Z,1.27
2018-08-18T06:53:46.986Z,1.20
2018-08-18T06:56:21.825Z,0.90
2018-08-18T06:58:59.986Z,1.80
2018-08-18T07:01:34.970Z,0.80
2018-08-18T07:04:12.914Z,0.83
2018-08-18T07:06:48.117Z,1.00
2018-08-18T07:09:21.965Z,0.80
2018-08-18T07:11:56.295Z,1.57
2018-08-18T07:14:30.025Z,1.10
2018-08-18T07:17:03.923Z,1.03
2018-08-18T07:19:37.669Z,1.03
2018-08-18T07:22:11.866Z,1.00
2018-08-18T07:24:45.773Z,0.93
2018-08-18T07:27:19.669Z,0.80
2018-08-18T07:29:53.588Z,0.80
2018-08-18T07:32:27.340Z,0.70
2018-08-18T07:35:01.750Z,1.00
2018-08-18T07:37:35.835Z,0.97
2018-08-18T07:40:09.637Z,0.70
2018-08-18T07:42:43.917Z,0.70
2018-08-18T07:45:17.680Z,1.17
2018-08-18T07:47:51.485Z,0.87
2018-08-18T07:50:25.272Z,1.40
2018-08-18T07:52:59.357Z,0.70
2018-08-18T07:55:33.236Z,1.00
2018-08-18T07:58:08.765Z,0.90
2018-08-18T08:00:43.081Z,0.83
2018-08-18T08:03:17.741Z,0.90
2018-08-18T08:05:51.580Z,1.50
2018-08-18T08:08:29.176Z,0.87
2018-08-18T08:11:17.662Z,1.23
2018-08-18T08:13:51.498Z,1.00
2018-08-18T08:16:25.398Z,0.40
2018-08-18T08:18:59.140Z,1.97
2018-08-18T08:21:32.896Z,4.20
2018-08-18T08:24:06.582Z,0.80
2018-08-18T08:26:40.344Z,0.80
2018-08-18T08:29:14.055Z,0.70
2018-08-18T08:31:47.994Z,0.60
2018-08-18T08:34:22.123Z,0.60
2018-08-18T08:36:55.976Z,0.70
2018-08-18T08:39:29.710Z,0.70
2018-08-18T08:42:03.819Z,0.83
2018-08-18T08:44:37.765Z,0.90
2018-08-18T08:47:13.137Z,0.60
2018-08-18T08:49:46.760Z,0.60
2018-08-18T08:52:20.486Z,0.33
2018-08-18T08:54:54.694Z,1.00
2018-08-18T08:57:28.722Z,0.40
2018-08-18T09:00:02.571Z,0.60
2018-08-18T09:02:36.359Z,0.73
2018-08-18T09:05:10.491Z,0.60
2018-08-18T09:07:44.535Z,0.50
2018-08-18T09:10:18.680Z,0.40
2018-08-18T09:12:52.593Z,0.40
2018-08-18T09:15:26.580Z,0.03
2018-08-18T09:18:00.476Z,0.40
2018-08-18T09:20:40.095Z,0.73
2018-08-18T09:23:14.044Z,0.33
2018-08-18T09:25:48.125Z,0.30
2018-08-18T09:28:21.989Z,0.33
2018-08-18T09:30:56.052Z,0.57
2018-08-18T09:33:29.802Z,0.50
2018-08-18T09:36:04.047Z,0.70
2018-08-18T09:38:37.997Z,0.20
2018-08-18T09:41:11.810Z,0.30
2018-08-18T09:43:45.728Z,0.60
2018-08-18T09:46:19.607Z,0.60
2018-08-18T09:48:53.554Z,0.80
2018-08-18T09:51:27.427Z,0.50
2018-08-18T09:54:01.467Z,0.43
2018-08-18T09:56:35.283Z,0.57
2018-08-18T09:59:09.217Z,0.50
2018-08-18T10:01:43.447Z,0.80
2018-08-18T10:04:17.113Z,0.53
2018-08-18T10:06:51.275Z,0.77
2018-08-18T10:09:25.353Z,0.53
2018-08-18T10:11:59.091Z,0.40
2018-08-18T10:14:33.039Z,0.67
2018-08-18T10:17:06.867Z,0.83
2018-08-18T10:19:40.791Z,0.60
2018-08-18T10:22:14.764Z,0.80
2018-08-18T10:24:48.681Z,0.90
2018-08-18T10:27:22.748Z,0.80
2018-08-18T10:29:56.467Z,0.50
2018-08-18T10:32:30.332Z,0.73
2018-08-18T10:35:04.477Z,0.60
2018-08-18T10:37:38.551Z,0.40
2018-08-18T10:40:12.339Z,1.00
2018-08-18T10:42:46.020Z,0.50
2018-08-18T10:45:19.845Z,1.17
2018-08-18T10:47:54.003Z,0.97
2018-08-18T10:50:33.551Z,0.70
2018-08-18T10:53:07.341Z,0.60
2018-08-18T10:55:41.363Z,0.90
2018-08-18T10:58:20.851Z,0.50
2018-08-18T11:00:54.707Z,0.50
2018-08-18T11:03:28.729Z,1.03
2018-08-18T11:06:02.669Z,0.80
2018-08-18T11:08:36.499Z,1.07
2018-08-18T11:11:14.842Z,0.90
2018-08-18T11:13:48.513Z,1.03
2018-08-18T11:16:22.457Z,1.03
2018-08-18T11:18:56.506Z,1.20
2018-08-18T11:21:34.547Z,1.20
2018-08-18T11:24:08.554Z,0.93
2018-08-18T11:26:42.266Z,1.00
2018-08-18T11:29:17.888Z,0.80
2018-08-18T11:31:51.537Z,0.53
2018-08-18T11:34:25.460Z,0.70
2018-08-18T11:37:01.072Z,0.63
2018-08-18T11:39:34.843Z,0.80
2018-08-18T11:42:08.659Z,0.60
2018-08-18T11:44:42.579Z,0.80
2018-08-18T11:47:16.425Z,1.20
2018-08-18T11:49:50.357Z,1.00
2018-08-18T11:52:24.258Z,1.00
2018-08-18T11:54:58.130Z,1.53
2018-08-18T11:57:31.877Z,0.80
2018-08-18T12:00:06.268Z,1.00
2018-08-18T12:02:40.202Z,1.10
2018-08-18T12:05:14.039Z,0.80
2018-08-18T12:07:49.717Z,0.80
2018-08-18T12:10:23.534Z,0.90
2018-08-18T12:12:57.469Z,1.13
2018-08-18T12:15:31.691Z,1.03
2018-08-18T12:18:05.558Z,1.03
2018-08-18T12:20:39.569Z,0.87
2018-08-18T12:23:13.289Z,0.90
2018-08-18T12:25:49.083Z,1.20
2018-08-18T12:28:23.986Z,0.90
2018-08-18T12:30:58.015Z,1.07
2018-08-18T12:33:32.954Z,0.83
2018-08-18T12:36:07.294Z,1.10
2018-08-18T12:38:41.885Z,1.10
2018-08-18T12:41:15.815Z,1.07
2018-08-18T12:43:51.498Z,1.10
2018-08-18T12:46:30.700Z,0.80
2018-08-18T12:49:05.215Z,0.87
2018-08-18T12:51:39.126Z,1.07
2018-08-18T12:54:13.057Z,0.80
2018-08-18T12:56:47.037Z,1.00
2018-08-18T12:59:21.041Z,0.77
2018-08-18T13:01:54.824Z,1.30
2018-08-18T13:04:28.769Z,1.10
2018-08-18T13:07:02.733Z,0.80
2018-08-18T13:09:36.661Z,1.00
2018-08-18T13:12:10.701Z,0.87
2018-08-18T13:14:44.643Z,1.00
2018-08-18T13:17:18.685Z,0.90
2018-08-18T13:19:52.733Z,0.90
2018-08-18T13:22:26.679Z,0.80
2018-08-18T13:25:00.483Z,0.80
2018-08-18T13:27:38.968Z,0.90
2018-08-18T13:30:13.031Z,0.77
2018-08-18T13:32:46.983Z,0.80
2018-08-18T13:35:20.791Z,1.10
2018-08-18T13:37:55.099Z,0.80
2018-08-18T13:40:29.364Z,0.90
2018-08-18T13:43:03.171Z,1.40
2018-08-18T13:45:42.253Z,1.10
2018-08-18T13:48:15.961Z,1.10
2018-08-18T13:50:50.104Z,1.07
2018-08-18T13:53:24.126Z,0.83
2018-08-18T13:55:58.210Z,0.87
2018-08-18T13:58:32.175Z,0.70
2018-08-18T14:01:44.541Z,1.07
2018-08-18T14:04:23.974Z,0.80
2018-08-18T14:06:57.840Z,0.90
2018-08-18T14:09:31.791Z,1.00
2018-08-18T14:12:10.882Z,0.80
2018-08-18T14:14:45.322Z,1.10
2018-08-18T14:17:21.110Z,0.83
2018-08-18T14:19:55.254Z,1.20
2018-08-18T14:22:29.320Z,0.83
2018-08-18T14:25:03.457Z,0.90
2018-08-18T14:27:37.315Z,0.87
2018-08-18T14:30:11.273Z,1.00
2018-08-18T14:32:45.231Z,1.47
2018-08-18T14:35:19.584Z,1.27
2018-08-18T14:37:53.457Z,1.40
2018-08-18T14:40:27.392Z,1.30
2018-08-18T14:43:01.284Z,1.10
2018-08-18T14:45:35.364Z,1.30
2018-08-18T14:48:09.414Z,1.40
2018-08-18T14:50:43.766Z,1.20
2018-08-18T14:53:22.882Z,1.50
2018-08-18T14:55:56.872Z,1.60
2018-08-18T14:58:32.923Z,1.20
2018-08-18T15:01:12.116Z,1.00
2018-08-18T15:03:46.349Z,1.30
2018-08-18T15:06:20.352Z,1.30
2018-08-18T15:08:54.931Z,1.30
2018-08-18T15:11:28.680Z,1.00
2018-08-18T15:14:02.702Z,1.23
2018-08-18T15:16:36.690Z,1.20
2018-08-18T15:19:10.622Z,1.30
2018-08-18T15:21:44.465Z,1.10
2018-08-18T15:24:25.249Z,1.23
2018-08-18T15:26:59.366Z,1.10
2018-08-18T15:29:33.458Z,1.37
2018-08-18T15:32:07.345Z,1.07
2018-08-18T15:34:42.130Z,0.73
2018-08-18T15:37:17.353Z,0.87
2018-08-18T15:39:51.756Z,0.60
2018-08-18T15:42:26.380Z,0.63
2018-08-18T15:45:01.173Z,0.50
2018-08-18T15:47:36.908Z,0.50
2018-08-18T15:50:11.727Z,0.50
2018-08-18T15:52:47.592Z,0.60
2018-08-18T15:55:21.868Z,0.40
2018-08-18T15:57:56.115Z,0.50
2018-08-18T16:00:33.297Z,0.60
2018-08-18T16:03:07.478Z,0.40
2018-08-18T16:05:42.070Z,0.50
2018-08-18T16:08:16.386Z,0.60
2018-08-18T16:10:50.845Z,0.60
2018-08-18T16:13:25.513Z,0.40
2018-08-18T16:16:00.804Z,0.73
2018-08-18T16:18:34.930Z,0.47
2018-08-18T16:21:15.182Z,0.67
2018-08-18T16:23:50.192Z,0.60
2018-08-18T16:26:24.783Z,0.70
2018-08-18T16:28:58.916Z,0.90
2018-08-18T16:31:33.175Z,0.50
2018-08-18T16:34:07.794Z,0.67
2018-08-18T16:36:46.652Z,1.77
2018-08-18T16:39:20.583Z,1.13
2018-08-18T16:41:55.944Z,0.97
2018-08-18T16:44:31.253Z,1.20
2018-08-18T16:47:06.052Z,0.50
2018-08-18T16:49:40.871Z,0.80
2018-08-18T16:52:15.540Z,1.30
2018-08-18T16:54:50.195Z,0.73
2018-08-18T16:57:25.032Z,1.00
2018-08-18T17:00:00.233Z,0.63
2018-08-18T17:02:37.585Z,0.97
2018-08-18T17:05:12.032Z,0.80
2018-08-18T17:07:46.673Z,0.80
2018-08-18T17:10:20.950Z,0.57
2018-08-18T17:12:58.524Z,0.93
2018-08-18T17:15:35.257Z,0.63
2018-08-18T17:18:09.778Z,0.57
2018-08-18T17:20:48.458Z,0.60
2018-08-18T17:23:23.337Z,0.70
2018-08-18T17:25:57.901Z,0.83
2018-08-18T17:28:33.865Z,0.70
2018-08-18T17:31:08.581Z,0.60
2018-08-18T17:33:44.029Z,0.67
2018-08-18T17:36:19.468Z,1.13
2018-08-18T17:38:55.056Z,0.50
2018-08-18T17:41:30.047Z,0.70
2018-08-18T17:44:04.731Z,0.63
2018-08-18T17:46:43.615Z,0.77
2018-08-18T17:49:18.191Z,0.70
2018-08-18T17:51:58.297Z,0.63
2018-08-18T17:54:33.606Z,0.70
2018-08-18T17:57:08.237Z,0.80
2018-08-18T17:59:42.845Z,0.80
2018-08-18T18:02:18.033Z,0.70
2018-08-18T18:04:59.255Z,0.67
2018-08-18T18:07:33.930Z,0.63
2018-08-18T18:10:10.066Z,0.70
2018-08-18T18:12:44.675Z,0.70
2018-08-18T18:15:24.215Z,0.67
2018-08-18T18:17:59.166Z,0.70
2018-08-18T18:20:34.054Z,0.60
2018-08-18T18:23:08.364Z,0.70
2018-08-18T18:25:42.332Z,0.60
2018-08-18T18:28:17.624Z,0.60
2018-08-18T18:30:52.995Z,0.70
2018-08-18T18:33:28.627Z,0.83
2018-08-18T18:36:03.305Z,0.77
2018-08-18T18:38:43.416Z,0.50
2018-08-18T18:41:18.421Z,0.60
2018-08-18T18:44:00.769Z,0.70
2018-08-18T18:46:37.299Z,0.90
2018-08-18T18:49:21.038Z,0.73
2018-08-18T18:51:56.161Z,0.50
2018-08-18T18:54:31.218Z,0.90
2018-08-18T18:57:07.304Z,0.30
2018-08-18T18:59:49.091Z,0.50
2018-08-18T19:02:28.988Z,0.80
2018-08-18T19:05:07.608Z,0.47
2018-08-18T19:07:42.776Z,0.70
2018-08-18T19:10:17.398Z,0.70
2018-08-18T19:12:52.819Z,0.60
2018-08-18T19:15:28.751Z,0.60
2018-08-18T19:18:02.844Z,0.70
2018-08-18T19:20:37.959Z,0.80
2018-08-18T19:23:16.974Z,0.40
2018-08-18T19:25:51.856Z,0.57
2018-08-18T19:28:26.631Z,0.53
2018-08-18T19:31:01.336Z,0.70
2018-08-18T19:36:15.656Z,0.40
2018-08-18T19:38:50.667Z,0.70
2018-08-18T19:41:24.665Z,0.40
2018-08-18T19:43:58.723Z,0.60
2018-08-18T19:46:33.195Z,0.57
2018-08-18T19:49:07.443Z,0.73
2018-08-18T19:51:41.467Z,0.50
2018-08-18T19:54:16.050Z,0.50
2018-08-18T19:56:50.523Z,0.60
2018-08-18T19:59:26.316Z,0.60
2018-08-18T20:02:00.543Z,0.57
2018-08-18T20:04:34.835Z,0.50
2018-08-18T20:07:09.650Z,0.73
2018-08-18T20:09:43.733Z,0.50
2018-08-18T20:12:18.332Z,0.53
2018-08-18T20:14:54.170Z,0.60
2018-08-18T20:17:28.766Z,0.47
2018-08-18T20:20:03.698Z,0.50
2018-08-18T20:22:38.604Z,0.30
2018-08-18T20:25:13.330Z,0.50
2018-08-18T20:27:47.810Z,0.40
2018-08-18T20:30:22.386Z,0.50
2018-08-18T20:32:57.075Z,0.60
2018-08-18T20:35:31.178Z,0.60
2018-08-18T20:38:05.701Z,0.53
2018-08-18T20:40:40.103Z,0.53
2018-08-18T20:43:14.191Z,0.90
2018-08-18T20:45:48.990Z,0.50
2018-08-18T20:48:23.301Z,0.73
2018-08-18T20:50:57.647Z,0.57
2018-08-18T20:53:31.568Z,0.60
2018-08-18T20:56:06.739Z,0.70
2018-08-18T20:58:42.258Z,0.67
2018-08-18T21:01:16.515Z,0.60
2018-08-18T21:03:52.268Z,0.60
2018-08-18T21:06:26.213Z,0.57
2018-08-18T21:09:01.091Z,0.90
2018-08-18T21:11:35.516Z,0.70
2018-08-18T21:14:09.514Z,0.63
2018-08-18T21:16:43.559Z,0.70
2018-08-18T21:19:22.191Z,0.80
2018-08-18T21:21:57.189Z,0.90
2018-08-18T21:24:32.476Z,0.83
2018-08-18T21:27:06.454Z,0.70
2018-08-18T21:29:41.222Z,0.73
2018-08-18T21:32:15.185Z,0.70
2018-08-18T21:34:50.965Z,0.70
2018-08-18T21:37:24.969Z,0.80
2018-08-18T21:39:59.697Z,0.73
2018-08-18T21:42:33.678Z,0.60
2018-08-18T21:45:09.104Z,0.83
2018-08-18T21:47:43.534Z,0.70
2018-08-18T21:50:19.049Z,0.70
2018-08-18T21:52:53.800Z,0.73
2018-08-18T21:55:27.686Z,0.80
2018-08-18T21:58:01.579Z,0.80
2018-08-18T22:00:40.696Z,0.77
2018-08-18T22:03:14.756Z,0.70
2018-08-18T22:05:48.577Z,0.60
2018-08-18T22:08:22.424Z,1.00
2018-08-18T22:10:56.671Z,0.80
2018-08-18T22:13:44.420Z,0.80
2018-08-18T22:16:18.356Z,0.80
2018-08-18T22:18:57.409Z,0.70
2018-08-18T22:21:31.652Z,0.90
2018-08-18T22:24:05.696Z,1.10
2018-08-18T22:26:39.725Z,0.70
2018-08-18T22:29:13.801Z,1.00
2018-08-18T22:31:47.608Z,0.63
2018-08-18T22:34:21.518Z,0.70
2018-08-18T22:36:56.096Z,0.67
2018-08-18T22:39:29.916Z,0.80
2018-08-18T22:42:03.745Z,0.90
2018-08-18T22:44:37.793Z,1.00
2018-08-18T22:47:11.494Z,1.00
2018-08-18T22:49:45.428Z,0.80
2018-08-18T22:52:19.339Z,0.90
2018-08-18T22:54:53.316Z,0.80
2018-08-18T22:57:27.320Z,0.80
2018-08-18T23:00:01.112Z,0.73
2018-08-18T23:02:35.022Z,0.80
2018-08-18T23:05:08.756Z,0.80
2018-08-18T23:07:42.910Z,1.07
2018-08-18T23:10:16.780Z,0.73
2018-08-18T23:12:50.836Z,0.60
2018-08-18T23:15:24.674Z,0.87
2018-08-18T23:17:58.610Z,0.90
2018-08-18T23:20:33.159Z,0.93
2018-08-18T23:23:07.081Z,0.90
2018-08-18T23:25:41.023Z,0.90
2018-08-18T23:28:15.270Z,1.00
2018-08-18T23:30:49.077Z,0.97
2018-08-18T23:33:23.333Z,1.07
2018-08-18T23:35:57.263Z,0.90
2018-08-18T23:38:31.093Z,0.87
2018-08-18T23:41:08.951Z,0.83
2018-08-18T23:43:43.091Z,0.90
2018-08-18T23:46:16.998Z,0.80
2018-08-18T23:48:50.992Z,0.80
2018-08-18T23:51:29.007Z,1.13
2018-08-18T23:54:05.432Z,0.70
2018-08-18T23:56:39.218Z,0.93
2018-08-18T23:59:13.014Z,1.10
